createdAt,value
2022-12-05T00:01:59.241Z,10.63
2022-12-05T00:04:26.875Z,12.37
2022-12-05T00:06:54.464Z,11.27
2022-12-05T00:09:21.942Z,11.43
2022-12-05T00:11:50.250Z,11.02
2022-12-05T00:14:19.210Z,10.47
2022-12-05T00:16:46.788Z,11.48
2022-12-05T00:19:15.552Z,11.32
2022-12-05T00:21:43.739Z,11.10
2022-12-05T00:24:13.455Z,11.47
2022-12-05T00:26:41.104Z,12.60
2022-12-05T00:29:08.640Z,12.27
2022-12-05T00:31:37.630Z,11.73
2022-12-05T00:34:05.392Z,11.60
2022-12-05T00:36:36.891Z,12.67
2022-12-05T00:39:06.406Z,10.90
2022-12-05T00:41:34.006Z,12.77
2022-12-05T00:44:02.519Z,11.37
2022-12-05T00:46:31.862Z,12.07
2022-12-05T00:49:01.598Z,11.90
2022-12-05T00:51:31.184Z,10.93
2022-12-05T00:53:59.618Z,12.23
2022-12-05T00:56:28.527Z,9.83
2022-12-05T00:58:57.164Z,12.50
2022-12-05T01:01:26.493Z,11.00
2022-12-05T01:03:55.530Z,10.20
2022-12-05T01:06:25.276Z,10.40
2022-12-05T01:08:54.301Z,11.07
2022-12-05T01:11:23.115Z,11.10
2022-12-05T01:13:50.897Z,9.70
2022-12-05T01:16:20.429Z,11.17
2022-12-05T01:18:48.112Z,9.93
2022-12-05T01:21:15.752Z,10.27
2022-12-05T01:23:44.711Z,11.90
2022-12-05T01:26:14.601Z,11.77
2022-12-05T01:28:42.459Z,11.80
2022-12-05T01:31:11.772Z,11.52
2022-12-05T01:33:39.463Z,12.40
2022-12-05T01:36:11.579Z,10.73
2022-12-05T01:38:39.890Z,11.60
2022-12-05T01:41:11.664Z,11.27
2022-12-05T01:43:55.071Z,11.45
2022-12-05T01:46:22.741Z,12.23
2022-12-05T01:48:50.705Z,11.55
2022-12-05T01:51:18.827Z,10.73
2022-12-05T01:53:46.752Z,11.15
2022-12-05T01:56:15.763Z,9.95
2022-12-05T01:58:43.704Z,10.80
2022-12-05T02:01:12.619Z,11.10
2022-12-05T02:03:41.824Z,11.90
2022-12-05T02:06:10.587Z,10.93
2022-12-05T02:08:38.673Z,11.27
2022-12-05T02:11:08.303Z,11.30
2022-12-05T02:13:46.602Z,11.55
2022-12-05T02:16:20.111Z,11.70
2022-12-05T02:18:55.405Z,12.20
2022-12-05T02:21:52.639Z,11.73
2022-12-05T02:24:41.011Z,12.43
2022-12-05T02:27:21.358Z,12.30
2022-12-05T02:30:09.485Z,12.50
2022-12-05T02:32:48.046Z,10.90
2022-12-05T02:35:22.775Z,10.50
2022-12-05T02:37:55.626Z,11.97
2022-12-05T02:40:25.598Z,13.30
2022-12-05T02:42:58.728Z,12.02
2022-12-05T02:45:29.622Z,11.30
2022-12-05T02:47:57.862Z,11.77
2022-12-05T02:50:27.139Z,12.90
2022-12-05T02:52:55.817Z,12.53
2022-12-05T02:55:24.320Z,13.50
2022-12-05T02:57:54.056Z,12.52
2022-12-05T03:00:21.791Z,11.67
2022-12-05T03:02:53.598Z,12.95
2022-12-05T03:05:24.381Z,12.30
2022-12-05T03:07:53.274Z,11.73
2022-12-05T03:10:23.424Z,11.23
2022-12-05T03:12:52.826Z,12.40
2022-12-05T03:15:24.500Z,12.00
2022-12-05T03:17:56.383Z,11.90
2022-12-05T03:20:28.690Z,12.17
2022-12-05T03:22:58.912Z,13.00
2022-12-05T03:25:31.329Z,12.00
2022-12-05T03:28:05.134Z,12.00
2022-12-05T03:30:35.974Z,12.53
2022-12-05T03:33:09.064Z,11.50
2022-12-05T03:35:38.456Z,11.77
2022-12-05T03:38:10.431Z,12.65
2022-12-05T03:40:41.803Z,13.90
2022-12-05T03:43:11.762Z,12.13
2022-12-05T03:45:45.197Z,12.85
2022-12-05T03:48:17.516Z,11.65
2022-12-05T03:50:47.655Z,12.60
2022-12-05T03:53:19.929Z,13.20
2022-12-05T03:55:50.433Z,12.10
2022-12-05T03:58:25.071Z,12.50
2022-12-05T04:00:54.051Z,11.93
2022-12-05T04:03:26.254Z,13.10
2022-12-05T04:05:56.342Z,13.82
2022-12-05T04:08:27.216Z,13.30
2022-12-05T04:10:56.798Z,13.40
2022-12-05T04:13:28.683Z,13.33
2022-12-05T04:16:16.758Z,14.23
2022-12-05T04:18:50.681Z,12.27
2022-12-05T04:21:36.970Z,12.70
2022-12-05T04:24:25.018Z,14.13
2022-12-05T04:26:56.933Z,13.40
2022-12-05T04:29:28.236Z,13.60
2022-12-05T04:31:59.669Z,13.50
2022-12-05T04:34:29.375Z,12.70
2022-12-05T04:37:00.727Z,13.55
2022-12-05T04:39:32.302Z,12.95
2022-12-05T04:42:01.724Z,13.53
2022-12-05T04:44:32.026Z,11.73
2022-12-05T04:47:02.784Z,13.30
2022-12-05T04:49:34.728Z,11.43
2022-12-05T04:52:03.879Z,13.80
2022-12-05T04:54:33.227Z,14.50
2022-12-05T04:57:08.136Z,13.68
2022-12-05T04:59:35.975Z,13.43
2022-12-05T05:02:08.062Z,13.70
2022-12-05T05:04:39.138Z,13.50
2022-12-05T05:07:08.289Z,13.33
2022-12-05T05:09:36.112Z,14.07
2022-12-05T05:12:03.728Z,12.10
2022-12-05T05:14:31.298Z,13.53
2022-12-05T05:16:59.023Z,13.70
2022-12-05T05:19:26.598Z,13.30
2022-12-05T05:21:55.440Z,13.60
2022-12-05T05:24:23.487Z,13.50
2022-12-05T05:26:56.969Z,14.43
2022-12-05T05:29:24.984Z,14.57
2022-12-05T05:31:52.553Z,14.03
2022-12-05T05:34:20.060Z,13.43
2022-12-05T05:36:52.466Z,13.23
2022-12-05T05:39:21.400Z,13.70
2022-12-05T05:41:48.910Z,14.10
2022-12-05T05:44:16.395Z,14.27
2022-12-05T05:46:43.981Z,12.00
2022-12-05T05:49:11.718Z,13.53
2022-12-05T05:51:39.240Z,13.57
2022-12-05T05:54:06.755Z,15.50
2022-12-05T05:56:35.628Z,14.50
2022-12-05T05:59:04.236Z,14.40
2022-12-05T06:01:31.905Z,13.57
2022-12-05T06:03:59.629Z,12.87
2022-12-05T06:06:27.556Z,13.50
2022-12-05T06:08:55.624Z,14.50
2022-12-05T06:11:26.773Z,13.77
2022-12-05T06:13:56.370Z,14.57
2022-12-05T06:16:24.057Z,13.97
2022-12-05T06:18:52.546Z,12.90
2022-12-05T06:21:20.498Z,14.27
2022-12-05T06:23:48.372Z,15.67
2022-12-05T06:26:17.596Z,14.85
2022-12-05T06:28:45.417Z,12.63
2022-12-05T06:31:15.565Z,14.90
2022-12-05T06:33:43.100Z,15.20
2022-12-05T06:36:12.989Z,15.53
2022-12-05T06:38:42.439Z,15.02
2022-12-05T06:41:11.720Z,14.73
2022-12-05T06:43:39.261Z,16.10
2022-12-05T06:46:07.659Z,14.23
2022-12-05T06:48:36.752Z,15.67
2022-12-05T06:51:06.847Z,14.30
2022-12-05T06:53:34.416Z,15.25
2022-12-05T06:56:03.472Z,15.30
2022-12-05T06:58:30.973Z,15.43
2022-12-05T07:01:16.090Z,16.92
2022-12-05T07:03:45.058Z,16.38
2022-12-05T07:06:12.595Z,14.30
2022-12-05T07:08:41.373Z,15.05
2022-12-05T07:11:09.343Z,15.00
2022-12-05T07:13:36.867Z,14.40
2022-12-05T07:16:07.036Z,14.93
2022-12-05T07:18:35.044Z,14.70
2022-12-05T07:21:13.825Z,14.20
2022-12-05T07:23:42.151Z,14.57
2022-12-05T07:26:11.268Z,16.03
2022-12-05T07:28:38.864Z,14.30
2022-12-05T07:31:08.177Z,14.40
2022-12-05T07:33:36.378Z,14.67
2022-12-05T07:36:07.205Z,14.37
2022-12-05T07:38:34.733Z,12.90
2022-12-05T07:41:10.213Z,14.97
2022-12-05T07:43:40.746Z,13.53
2022-12-05T07:46:09.563Z,14.07
2022-12-05T07:48:37.381Z,16.15
2022-12-05T07:51:09.933Z,15.10
2022-12-05T07:53:38.437Z,14.87
2022-12-05T07:56:07.798Z,16.23
2022-12-05T07:58:36.040Z,13.88
2022-12-05T08:01:07.358Z,15.27
2022-12-05T08:03:35.213Z,16.30
2022-12-05T08:06:04.448Z,16.00
2022-12-05T08:08:33.558Z,15.63
2022-12-05T08:11:04.677Z,15.00
2022-12-05T08:13:32.387Z,15.37
2022-12-05T08:16:02.982Z,15.30
2022-12-05T08:18:30.690Z,14.53
2022-12-05T08:21:02.858Z,15.77
2022-12-05T08:23:31.682Z,16.00
2022-12-05T08:26:04.031Z,15.50
2022-12-05T08:28:31.883Z,16.03
2022-12-05T08:31:16.499Z,15.43
2022-12-05T08:33:44.697Z,15.90
2022-12-05T08:36:15.334Z,15.60
2022-12-05T08:38:43.628Z,16.03
2022-12-05T08:41:14.349Z,16.10
2022-12-05T08:43:42.583Z,15.40
2022-12-05T08:46:10.453Z,17.30
2022-12-05T08:48:38.364Z,16.10
2022-12-05T08:51:08.289Z,16.87
2022-12-05T08:53:40.935Z,18.03
2022-12-05T08:56:11.993Z,16.50
2022-12-05T08:58:40.350Z,15.40
2022-12-05T09:01:09.666Z,17.08
2022-12-05T09:03:37.427Z,18.03
2022-12-05T09:06:09.581Z,17.63
2022-12-05T09:08:37.676Z,17.57
2022-12-05T09:11:08.629Z,15.93
2022-12-05T09:13:37.491Z,16.67
2022-12-05T09:16:08.956Z,17.27
2022-12-05T09:18:36.643Z,15.27
2022-12-05T09:21:07.691Z,16.20
2022-12-05T09:23:35.233Z,16.73
2022-12-05T09:26:02.994Z,16.83
2022-12-05T09:28:31.134Z,17.33
2022-12-05T09:31:01.765Z,18.73
2022-12-05T09:33:30.487Z,14.63
2022-12-05T09:35:58.513Z,17.90
2022-12-05T09:38:26.388Z,16.90
2022-12-05T09:41:01.745Z,22.27
2022-12-05T09:43:35.887Z,18.20
2022-12-05T09:46:13.659Z,17.23
2022-12-05T09:48:41.515Z,18.07
2022-12-05T09:51:10.700Z,16.40
2022-12-05T09:53:40.211Z,15.83
2022-12-05T09:56:14.908Z,17.27
2022-12-05T09:58:44.455Z,17.30
2022-12-05T10:01:29.555Z,16.20
2022-12-05T10:04:12.175Z,15.37
2022-12-05T10:06:42.768Z,15.57
2022-12-05T10:09:24.367Z,16.80
2022-12-05T10:11:57.756Z,15.07
2022-12-05T10:14:33.619Z,16.30
2022-12-05T10:17:08.579Z,16.67
2022-12-05T10:19:45.531Z,16.07
2022-12-05T10:22:20.459Z,15.03
2022-12-05T10:24:51.967Z,16.73
2022-12-05T10:27:27.207Z,14.50
2022-12-05T10:29:59.110Z,14.73
2022-12-05T10:32:33.596Z,14.70
2022-12-05T10:35:10.363Z,16.17
2022-12-05T10:37:39.373Z,16.30
2022-12-05T10:40:14.049Z,15.60
2022-12-05T10:42:41.828Z,16.20
2022-12-05T10:45:15.146Z,15.50
2022-12-05T10:47:45.473Z,15.13
2022-12-05T10:50:25.777Z,15.43
2022-12-05T10:52:54.757Z,15.47
2022-12-05T10:55:22.823Z,14.07
2022-12-05T10:57:52.411Z,13.83
2022-12-05T11:00:25.254Z,14.33
2022-12-05T11:02:55.227Z,15.17
2022-12-05T11:05:30.741Z,13.23
2022-12-05T11:08:00.060Z,15.33
2022-12-05T11:10:29.239Z,14.50
2022-12-05T11:12:57.826Z,13.90
2022-12-05T11:15:28.056Z,13.77
2022-12-05T11:17:59.077Z,14.90
2022-12-05T11:20:40.628Z,12.00
2022-12-05T11:23:22.125Z,13.20
2022-12-05T11:25:50.000Z,13.10
2022-12-05T11:28:29.403Z,13.00
2022-12-05T11:30:59.382Z,13.60
2022-12-05T11:33:29.079Z,12.43
2022-12-05T11:36:00.265Z,11.20
2022-12-05T11:38:32.229Z,12.23
2022-12-05T11:41:09.285Z,10.67
2022-12-05T11:44:13.423Z,10.10
2022-12-05T11:46:49.136Z,10.10
2022-12-05T11:49:29.379Z,9.70
2022-12-05T11:52:05.079Z,9.07
2022-12-05T11:55:06.269Z,10.30
2022-12-05T11:57:45.065Z,10.80
2022-12-05T12:00:22.423Z,9.27
2022-12-05T12:03:12.969Z,11.40
2022-12-05T12:05:46.075Z,11.20
2022-12-05T12:08:21.199Z,10.60
2022-12-05T12:10:56.516Z,10.43
2022-12-05T12:13:36.709Z,9.97
2022-12-05T12:16:11.480Z,9.73
2022-12-05T12:18:50.588Z,9.80
2022-12-05T12:21:20.696Z,9.73
2022-12-05T12:23:59.723Z,10.80
2022-12-05T12:26:36.577Z,9.90
2022-12-05T12:29:11.658Z,9.77
2022-12-05T12:31:55.336Z,9.70
2022-12-05T12:34:38.939Z,11.03
2022-12-05T12:37:15.067Z,9.73
2022-12-05T12:39:49.035Z,10.60
2022-12-05T12:42:23.012Z,9.47
2022-12-05T12:45:13.450Z,9.87
2022-12-05T12:47:48.448Z,10.33
2022-12-05T12:50:19.913Z,10.47
2022-12-05T12:53:12.849Z,10.50
2022-12-05T12:55:43.644Z,11.27
2022-12-05T12:58:21.986Z,10.70
2022-12-05T13:00:59.883Z,9.83
2022-12-05T13:03:32.030Z,9.60
2022-12-05T13:06:02.353Z,11.10
2022-12-05T13:08:35.880Z,11.00
2022-12-05T13:11:06.883Z,10.47
2022-12-05T13:13:38.308Z,12.20
2022-12-05T13:16:08.685Z,10.90
2022-12-05T13:18:36.537Z,10.37
2022-12-05T13:21:07.159Z,11.57
2022-12-05T13:23:42.179Z,11.00
2022-12-05T13:26:11.700Z,10.83
2022-12-05T13:28:42.119Z,10.30
2022-12-05T13:31:10.292Z,12.90
2022-12-05T13:33:43.915Z,11.97
2022-12-05T13:36:30.408Z,10.37
2022-12-05T13:39:18.491Z,12.23
2022-12-05T13:42:04.788Z,12.20
2022-12-05T13:44:37.596Z,12.73
2022-12-05T13:47:07.293Z,14.63
2022-12-05T13:49:43.520Z,14.10
2022-12-05T13:52:14.506Z,14.40
2022-12-05T13:54:45.848Z,13.43
2022-12-05T13:57:45.751Z,13.40
2022-12-05T14:00:31.939Z,12.30
2022-12-05T14:03:05.461Z,13.10
2022-12-05T14:05:44.455Z,14.20
2022-12-05T14:08:48.761Z,11.77
2022-12-05T14:11:18.027Z,13.53
2022-12-05T14:13:46.140Z,12.63
2022-12-05T14:16:46.909Z,13.70
2022-12-05T14:19:50.460Z,12.20
2022-12-05T14:22:39.004Z,11.63
2022-12-05T14:25:13.713Z,10.97
2022-12-05T14:27:47.985Z,11.37
2022-12-05T14:30:22.599Z,10.93
2022-12-05T14:32:51.723Z,12.00
2022-12-05T14:35:30.095Z,11.80
2022-12-05T14:37:58.738Z,12.43
2022-12-05T14:40:32.259Z,11.10
2022-12-05T14:43:03.730Z,10.00
2022-12-05T14:45:34.452Z,12.27
2022-12-05T14:48:03.143Z,11.70
2022-12-05T14:50:41.165Z,11.10
2022-12-05T14:53:37.799Z,11.00
2022-12-05T14:56:19.928Z,11.10
2022-12-05T14:58:51.879Z,10.90
2022-12-05T15:01:22.529Z,11.97
2022-12-05T15:04:06.769Z,12.40
2022-12-05T15:06:36.547Z,10.63
2022-12-05T15:09:35.995Z,11.97
2022-12-05T15:11:57.122Z,10.97
2022-12-05T15:14:31.300Z,12.47
2022-12-05T15:17:00.807Z,12.27
2022-12-05T15:19:30.886Z,12.00
2022-12-05T15:22:01.422Z,11.30
2022-12-05T15:24:29.016Z,12.93
2022-12-05T15:26:57.934Z,12.77
2022-12-05T15:29:29.090Z,11.97
2022-12-05T15:32:02.117Z,11.83
2022-12-05T15:34:31.596Z,12.13
2022-12-05T15:37:03.810Z,12.87
2022-12-05T15:39:51.466Z,10.80
2022-12-05T15:42:18.967Z,11.20
2022-12-05T15:44:47.823Z,11.70
2022-12-05T15:47:21.151Z,10.23
2022-12-05T15:49:48.836Z,11.53
2022-12-05T15:55:22.631Z,11.90
2022-12-05T15:58:12.825Z,10.87
2022-12-05T16:00:46.411Z,11.77
2022-12-05T16:03:17.089Z,12.87
2022-12-05T16:05:50.359Z,10.97
2022-12-05T16:08:18.345Z,12.27
2022-12-05T16:10:48.126Z,12.43
2022-12-05T16:13:16.863Z,13.03
2022-12-05T16:15:52.612Z,11.43
2022-12-05T16:18:27.502Z,13.70
2022-12-05T16:20:55.661Z,12.77
2022-12-05T16:23:26.683Z,13.20
2022-12-05T16:25:54.577Z,13.60
2022-12-05T16:28:24.173Z,12.77
2022-12-05T16:30:58.335Z,13.63
2022-12-05T16:33:26.878Z,12.63
2022-12-05T16:35:54.764Z,14.47
2022-12-05T16:38:25.658Z,17.40
2022-12-05T16:40:58.598Z,14.27
2022-12-05T16:43:29.151Z,14.47
2022-12-05T16:46:01.052Z,14.77
2022-12-05T16:48:30.220Z,15.87
2022-12-05T16:51:17.562Z,14.03
2022-12-05T16:53:48.661Z,15.63
2022-12-05T16:56:18.011Z,14.73
2022-12-05T16:58:45.960Z,13.83
2022-12-05T17:01:20.942Z,15.43
2022-12-05T17:03:48.947Z,14.83
2022-12-05T17:06:19.192Z,16.70
2022-12-05T17:08:46.840Z,15.23
2022-12-05T17:11:19.515Z,16.07
2022-12-05T17:13:48.549Z,16.10
2022-12-05T17:16:21.626Z,15.97
2022-12-05T17:19:28.530Z,14.73
2022-12-05T17:21:54.347Z,13.93
2022-12-05T17:24:22.240Z,13.67
2022-12-05T17:26:49.921Z,15.53
2022-12-05T17:29:17.596Z,14.13
2022-12-05T17:31:46.755Z,13.87
2022-12-05T17:34:18.542Z,15.47
2022-12-05T17:36:46.558Z,16.77
2022-12-05T17:39:14.568Z,14.93
2022-12-05T17:41:42.292Z,16.20
2022-12-05T17:44:16.018Z,16.53
2022-12-05T17:46:57.080Z,15.40
2022-12-05T17:49:26.181Z,13.50
2022-12-05T17:52:24.656Z,14.87
2022-12-05T17:54:42.368Z,14.57
2022-12-05T17:57:10.046Z,15.17
2022-12-05T17:59:38.164Z,14.80
2022-12-05T18:02:07.567Z,13.37
2022-12-05T18:04:35.275Z,14.10
2022-12-05T18:07:03.118Z,12.77
2022-12-05T18:09:31.055Z,13.90
2022-12-05T18:11:58.686Z,12.00
2022-12-05T18:14:28.367Z,13.23
2022-12-05T18:16:56.471Z,11.60
2022-12-05T18:19:26.953Z,10.57
2022-12-05T18:21:54.712Z,12.03
2022-12-05T18:24:22.436Z,11.03
2022-12-05T18:26:50.045Z,12.43
2022-12-05T18:29:17.768Z,11.70
2022-12-05T18:31:45.525Z,12.50
2022-12-05T18:34:13.358Z,11.07
2022-12-05T18:36:42.454Z,10.10
2022-12-05T18:39:12.577Z,11.37
2022-12-05T18:41:40.212Z,10.90
2022-12-05T18:44:08.658Z,11.43
2022-12-05T18:46:37.994Z,11.37
2022-12-05T18:49:05.810Z,9.90
2022-12-05T18:51:33.590Z,10.40
2022-12-05T18:54:02.640Z,9.77
2022-12-05T18:56:40.015Z,11.27
2022-12-05T18:59:09.504Z,9.70
2022-12-05T19:01:38.856Z,8.60
2022-12-05T19:04:08.747Z,8.27
2022-12-05T19:06:40.120Z,8.90
2022-12-05T19:09:12.732Z,8.67
2022-12-05T19:11:47.017Z,8.40
2022-12-05T19:14:15.822Z,8.77
2022-12-05T19:16:43.574Z,8.20
2022-12-05T19:19:12.064Z,6.80
2022-12-05T19:21:39.661Z,6.83
2022-12-05T19:24:16.746Z,8.40
2022-12-05T19:26:46.496Z,7.93
2022-12-05T19:29:19.493Z,7.73
2022-12-05T19:31:49.697Z,7.47
2022-12-05T19:34:24.472Z,6.78
2022-12-05T19:36:53.777Z,5.90
2022-12-05T19:39:26.788Z,7.07
2022-12-05T19:41:57.885Z,5.77
2022-12-05T19:44:26.907Z,6.03
2022-12-05T19:46:55.050Z,5.63
2022-12-05T19:49:23.454Z,6.23
2022-12-05T19:51:52.623Z,6.20
2022-12-05T19:54:26.838Z,6.53
2022-12-05T19:57:00.827Z,5.40
2022-12-05T19:59:29.680Z,5.50
2022-12-05T20:02:01.114Z,5.50
2022-12-05T20:04:29.013Z,6.10
2022-12-05T20:06:58.875Z,4.93
2022-12-05T20:09:30.624Z,5.30
2022-12-05T20:12:03.961Z,5.80
2022-12-05T20:14:33.812Z,5.93
2022-12-05T20:17:13.601Z,5.10
2022-12-05T20:19:45.641Z,5.77
2022-12-05T20:22:13.403Z,6.13
2022-12-05T20:24:42.749Z,5.30
2022-12-05T20:27:11.938Z,5.83
2022-12-05T20:30:00.131Z,6.20
2022-12-05T20:32:28.255Z,5.57
2022-12-05T20:34:59.586Z,6.00
2022-12-05T20:37:29.926Z,6.40
2022-12-05T20:40:15.767Z,5.67
2022-12-05T20:42:46.757Z,5.37
2022-12-05T20:45:14.619Z,5.90
2022-12-05T20:47:42.307Z,4.93
2022-12-05T20:50:12.196Z,5.87
2022-12-05T20:52:46.609Z,6.53
2022-12-05T20:55:20.281Z,7.03
2022-12-05T20:57:49.268Z,5.47
2022-12-05T21:00:17.265Z,5.83
2022-12-05T21:02:46.421Z,4.90
2022-12-05T21:05:40.563Z,5.10
2022-12-05T21:08:08.379Z,4.70
2022-12-05T21:10:37.414Z,5.27
2022-12-05T21:13:07.676Z,5.17
2022-12-05T21:15:58.179Z,5.40
2022-12-05T21:18:25.869Z,5.30
2022-12-05T21:20:57.668Z,5.60
2022-12-05T21:23:25.393Z,5.10
2022-12-05T21:25:57.102Z,6.10
2022-12-05T21:28:24.965Z,5.10
2022-12-05T21:31:03.145Z,5.40
2022-12-05T21:33:30.998Z,5.17
2022-12-05T21:35:58.743Z,5.13
2022-12-05T21:38:28.701Z,5.60
2022-12-05T21:40:59.426Z,5.10
2022-12-05T21:43:28.489Z,5.47
2022-12-05T21:45:59.307Z,6.10
2022-12-05T21:48:30.029Z,4.90
2022-12-05T21:50:59.143Z,5.47
2022-12-05T21:53:30.421Z,5.27
2022-12-05T21:56:04.222Z,5.60
2022-12-05T21:58:36.848Z,5.90
2022-12-05T22:01:31.007Z,4.80
2022-12-05T22:04:05.414Z,5.30
2022-12-05T22:06:35.514Z,5.43
2022-12-05T22:09:03.266Z,5.47
2022-12-05T22:11:34.750Z,4.80
2022-12-05T22:14:06.993Z,5.83
2022-12-05T22:16:36.431Z,6.20
2022-12-05T22:19:04.446Z,6.47
2022-12-05T22:21:33.842Z,5.23
2022-12-05T22:24:01.884Z,5.57
2022-12-05T22:26:35.465Z,5.60
2022-12-05T22:29:06.506Z,6.40
2022-12-05T22:31:38.232Z,5.33
2022-12-05T22:34:11.890Z,5.57
2022-12-05T22:36:43.868Z,6.97
2022-12-05T22:39:15.130Z,6.90
2022-12-05T22:41:42.981Z,6.77
2022-12-05T22:44:12.149Z,6.93
2022-12-05T22:46:42.254Z,6.87
2022-12-05T22:49:12.544Z,6.43
2022-12-05T22:51:40.215Z,6.63
2022-12-05T22:54:08.646Z,6.40
2022-12-05T22:56:36.252Z,6.20
2022-12-05T22:59:04.068Z,6.90
2022-12-05T23:01:34.224Z,6.23
2022-12-05T23:04:03.487Z,6.87
2022-12-05T23:06:33.964Z,7.40
2022-12-05T23:09:02.046Z,6.30
2022-12-05T23:11:30.752Z,6.87
2022-12-05T23:14:02.165Z,6.37
2022-12-05T23:16:34.633Z,6.83
2022-12-05T23:19:04.008Z,6.00
2022-12-05T23:21:33.500Z,6.23
2022-12-05T23:24:04.777Z,5.87
2022-12-05T23:26:34.832Z,6.73
2022-12-05T23:29:15.173Z,6.97
2022-12-05T23:31:44.691Z,7.40
2022-12-05T23:34:14.509Z,6.30
2022-12-05T23:36:43.921Z,6.63
2022-12-05T23:39:11.750Z,6.67
2022-12-05T23:41:41.756Z,7.20
2022-12-05T23:44:12.012Z,6.93
2022-12-05T23:46:41.016Z,6.70
2022-12-05T23:49:10.465Z,7.50
2022-12-05T23:51:40.085Z,6.80
2022-12-05T23:54:10.656Z,6.67
2022-12-05T23:56:42.562Z,5.47
2022-12-05T23:59:10.750Z,6.93
